Time;durP1;ratioP1;P1;durP2;ratioP2;P2;SDS_P1;SDS_P2;PMS_P1;PMS_P2;Temp;Humidity;BMP_temperature;BMP_pressure;BME280_temperature;BME280_humidity;BME280_pressure;Samples;Min_cycle;Max_cycle;Signal;HPM_P1;HPM_P2
2022/11/24 00:01:23;;;;;;;8.73;3.03;;;5.70;99.90;;;;;;5010580;28;20273;-39
2022/11/24 00:04:05;;;;;;;6.13;2.57;;;5.70;99.90;;;;;;5010186;28;20265;-37
2022/11/24 00:06:34;;;;;;;10.60;3.10;;;5.60;99.90;;;;;;5005251;28;20215;-38
2022/11/24 00:09:01;;;;;;;6.07;2.40;;;5.60;99.90;;;;;;5010391;28;20189;-38
2022/11/24 00:11:29;;;;;;;7.27;3.03;;;5.60;99.90;;;;;;5010420;28;20201;-37
2022/11/24 00:13:57;;;;;;;8.10;2.57;;;5.60;99.90;;;;;;5009956;28;20217;-38
2022/11/24 00:16:25;;;;;;;12.73;3.47;;;5.70;99.90;;;;;;5010274;28;20177;-38
2022/11/24 00:18:53;;;;;;;11.23;4.10;;;5.70;99.90;;;;;;5011233;28;20204;-38
2022/11/24 00:21:20;;;;;;;8.33;3.83;;;5.70;99.90;;;;;;5010648;28;20222;-38
2022/11/24 00:23:48;;;;;;;7.80;3.83;;;5.70;99.90;;;;;;5009897;28;20573;-37
2022/11/24 00:26:21;;;;;;;11.93;3.70;;;5.70;99.90;;;;;;4993896;28;20280;-38
2022/11/24 00:28:49;;;;;;;8.37;3.17;;;5.70;99.90;;;;;;4993461;28;20196;-38
2022/11/24 00:31:15;;;;;;;6.53;2.90;;;5.70;99.90;;;;;;4993808;28;20241;-38
2022/11/24 00:33:41;;;;;;;5.10;2.73;;;5.70;99.90;;;;;;5010057;28;20256;-38
2022/11/24 00:36:07;;;;;;;9.70;2.47;;;5.70;99.90;;;;;;4990675;28;20221;-37
2022/11/24 00:38:33;;;;;;;7.63;2.10;;;5.60;99.90;;;;;;4993113;28;20181;-37
2022/11/24 00:40:59;;;;;;;5.80;2.50;;;5.60;99.90;;;;;;5011433;28;20188;-39
2022/11/24 00:43:25;;;;;;;6.80;2.40;;;5.50;99.90;;;;;;5009624;28;20295;-38
2022/11/24 00:45:50;;;;;;;7.50;2.17;;;5.50;99.90;;;;;;5009604;28;20291;-37
2022/11/24 00:48:16;;;;;;;11.40;2.10;;;5.40;99.90;;;;;;5008975;28;20187;-37
2022/11/24 00:50:42;;;;;;;7.17;2.10;;;5.40;99.90;;;;;;5009772;28;20204;-37
2022/11/24 00:53:08;;;;;;;5.47;1.93;;;5.30;99.90;;;;;;5009785;28;20204;-38
2022/11/24 00:55:34;;;;;;;4.67;1.80;;;5.30;99.90;;;;;;4993479;28;20215;-38
2022/11/24 00:58:00;;;;;;;5.70;2.00;;;5.20;99.90;;;;;;5009392;28;20271;-38
2022/11/24 01:00:26;;;;;;;5.17;2.37;;;5.20;99.90;;;;;;5009824;28;20269;-38
2022/11/24 01:02:52;;;;;;;6.90;1.90;;;5.20;99.90;;;;;;5010230;28;20180;-37
2022/11/24 01:05:18;;;;;;;5.20;2.30;;;5.10;99.90;;;;;;5009704;28;20188;-37
2022/11/24 01:07:44;;;;;;;7.70;1.73;;;5.20;99.90;;;;;;5009376;28;20326;-39
2022/11/24 01:10:10;;;;;;;4.90;1.70;;;5.20;99.90;;;;;;5009840;28;20269;-37
2022/11/24 01:12:36;;;;;;;7.87;2.03;;;5.30;99.90;;;;;;5009328;28;20217;-38
2022/11/24 01:15:02;;;;;;;5.60;1.90;;;5.30;99.90;;;;;;5009162;28;20207;-39
2022/11/24 01:17:28;;;;;;;3.07;1.60;;;5.30;99.90;;;;;;5009332;28;20187;-38
2022/11/24 01:19:54;;;;;;;7.43;2.57;;;5.30;99.90;;;;;;5009788;28;20179;-37
2022/11/24 01:22:20;;;;;;;5.30;1.70;;;5.30;99.90;;;;;;5009350;28;20218;-37
2022/11/24 01:24:45;;;;;;;5.50;1.40;;;5.30;99.90;;;;;;5009481;28;20207;-38
2022/11/24 01:27:11;;;;;;;4.60;1.80;;;5.30;99.90;;;;;;4992459;28;20195;-37
2022/11/24 01:29:37;;;;;;;6.57;1.80;;;5.30;99.90;;;;;;5009500;28;20189;-37
2022/11/24 01:32:03;;;;;;;6.37;1.60;;;5.30;99.90;;;;;;5008957;28;20212;-37
2022/11/24 01:34:29;;;;;;;5.27;1.87;;;5.30;99.90;;;;;;4991917;28;20279;-37
2022/11/24 01:36:55;;;;;;;9.27;1.77;;;5.30;99.90;;;;;;5009074;28;20629;-37
2022/11/24 01:39:20;;;;;;;5.97;1.60;;;5.30;99.90;;;;;;5009524;28;20181;-37
2022/11/24 01:41:46;;;;;;;5.60;1.73;;;5.30;99.90;;;;;;5010732;28;20233;-37
2022/11/24 01:44:21;;;;;;;4.70;1.60;;;5.30;99.90;;;;;;4992750;28;20294;-39
2022/11/24 01:46:50;;;;;;;5.57;1.80;;;5.20;99.90;;;;;;5011295;28;20181;-37
2022/11/24 01:49:21;;;;;;;7.73;1.90;;;5.20;99.90;;;;;;5012971;28;20212;-38
2022/11/24 01:51:51;;;;;;;6.67;1.50;;;5.20;99.90;;;;;;5014089;28;20203;-37
2022/11/24 01:54:30;;;;;;;5.77;1.37;;;5.20;99.90;;;;;;5013064;28;20201;-37
2022/11/24 01:57:01;;;;;;;3.57;1.37;;;5.10;99.90;;;;;;5012664;28;20212;-37
2022/11/24 01:59:27;;;;;;;5.93;1.80;;;5.10;99.90;;;;;;5012967;28;20205;-37
2022/11/24 02:01:55;;;;;;;3.70;1.63;;;5.10;99.90;;;;;;5012711;28;20185;-37
2022/11/24 02:04:26;;;;;;;5.07;1.50;;;5.10;99.90;;;;;;4996356;28;20213;-37
2022/11/24 02:06:56;;;;;;;3.70;1.60;;;5.10;99.90;;;;;;5012399;28;20254;-38
2022/11/24 02:09:36;;;;;;;5.50;1.30;;;5.10;99.90;;;;;;5012542;28;20183;-37
2022/11/24 02:12:02;;;;;;;3.93;1.50;;;5.20;99.90;;;;;;5012032;28;20228;-37
2022/11/24 02:14:28;;;;;;;5.43;1.27;;;5.20;99.90;;;;;;5012531;28;20213;-37
2022/11/24 02:16:54;;;;;;;4.90;1.30;;;5.10;99.90;;;;;;5012043;28;20184;-37
2022/11/24 02:19:35;;;;;;;4.90;1.27;;;5.10;99.90;;;;;;5012436;28;20191;-37
2022/11/24 02:22:02;;;;;;;1.97;0.93;;;5.10;99.90;;;;;;5012349;28;20214;-37
2022/11/24 02:24:46;;;;;;;1.47;1.00;;;5.10;99.90;;;;;;5012323;28;20212;-37
2022/11/24 02:27:12;;;;;;;2.87;1.10;;;5.00;99.90;;;;;;5011725;28;20186;-39
2022/11/24 02:29:39;;;;;;;4.10;1.10;;;5.00;99.90;;;;;;5013750;28;20185;-37
2022/11/24 02:32:08;;;;;;;2.40;0.80;;;5.00;99.90;;;;;;5012328;28;20217;-37
2022/11/24 02:34:34;;;;;;;3.17;1.23;;;5.00;99.90;;;;;;5011917;28;20261;-38
2022/11/24 02:37:00;;;;;;;2.13;1.07;;;5.00;99.90;;;;;;5012079;28;20266;-37
2022/11/24 02:39:26;;;;;;;5.00;1.63;;;5.10;99.90;;;;;;5011602;28;20186;-37
2022/11/24 02:41:56;;;;;;;5.13;1.20;;;5.20;99.90;;;;;;5012492;28;20210;-37
2022/11/24 02:44:28;;;;;;;3.40;1.33;;;5.30;99.90;;;;;;5011925;28;20232;-37
2022/11/24 02:47:07;;;;;;;4.10;1.53;;;5.30;99.90;;;;;;5011666;28;20251;-38
2022/11/24 02:49:34;;;;;;;3.87;1.10;;;5.30;99.90;;;;;;5012068;28;20181;-37
2022/11/24 02:52:00;;;;;;;4.03;1.40;;;5.30;99.90;;;;;;5012124;28;20685;-38
2022/11/24 02:54:26;;;;;;;2.17;1.23;;;5.30;99.90;;;;;;5011663;28;20215;-37
2022/11/24 02:56:51;;;;;;;2.30;0.97;;;5.40;99.90;;;;;;5011702;28;20265;-37
2022/11/24 02:59:18;;;;;;;1.40;0.90;;;5.30;99.90;;;;;;5012684;28;20256;-38
2022/11/24 03:01:44;;;;;;;2.27;1.03;;;5.30;99.90;;;;;;5011242;28;20184;-38
2022/11/24 03:04:10;;;;;;;3.50;1.37;;;5.30;99.90;;;;;;5011527;28;20215;-38
2022/11/24 03:06:36;;;;;;;3.30;1.23;;;5.30;99.90;;;;;;5011360;28;20289;-38
2022/11/24 03:09:03;;;;;;;6.83;1.20;;;5.20;99.90;;;;;;5011152;28;20287;-38
2022/11/24 03:11:29;;;;;;;2.53;1.30;;;5.10;99.90;;;;;;5011247;28;20242;-38
2022/11/24 03:13:55;;;;;;;5.60;2.80;;;5.10;99.90;;;;;;5011161;28;20268;-37
2022/11/24 03:16:21;;;;;;;4.77;1.50;;;5.10;99.90;;;;;;4994935;28;20189;-37
2022/11/24 03:18:50;;;;;;;7.13;4.40;;;5.00;99.90;;;;;;4994783;28;20183;-37
2022/11/24 03:21:16;;;;;;;23.90;15.47;;;5.00;99.90;;;;;;5011400;28;20186;-37
2022/11/24 03:23:42;;;;;;;20.50;14.00;;;4.90;99.90;;;;;;4995277;28;20203;-38
2022/11/24 03:26:14;;;;;;;7.97;4.90;;;4.90;99.90;;;;;;4995185;28;20189;-38
2022/11/24 03:28:40;;;;;;;5.00;2.20;;;4.80;99.90;;;;;;5010785;28;20186;-39
2022/11/24 03:31:07;;;;;;;4.03;1.40;;;4.80;99.90;;;;;;5011374;28;20211;-38
2022/11/24 03:33:34;;;;;;;2.83;1.27;;;4.80;99.90;;;;;;5011022;28;20847;-38
2022/11/24 03:36:01;;;;;;;3.03;1.00;;;4.70;99.90;;;;;;4994845;28;20244;-38
2022/11/24 03:38:27;;;;;;;3.47;1.50;;;4.70;99.90;;;;;;5006104;28;20178;-39
2022/11/24 03:40:52;;;;;;;4.93;1.37;;;4.70;99.90;;;;;;5011193;28;20179;-39
2022/11/24 03:43:19;;;;;;;2.80;1.10;;;4.70;99.90;;;;;;4994461;28;20256;-38
2022/11/24 03:45:45;;;;;;;2.40;1.20;;;4.70;99.90;;;;;;5010799;28;20233;-39
2022/11/24 03:48:12;;;;;;;3.03;1.20;;;4.60;99.90;;;;;;5010004;28;20183;-41
2022/11/24 03:50:38;;;;;;;5.50;1.23;;;4.60;99.90;;;;;;5010442;28;20247;-38
2022/11/24 03:53:04;;;;;;;2.67;1.20;;;4.60;99.90;;;;;;5010658;28;20180;-39
2022/11/24 03:55:29;;;;;;;3.63;1.27;;;4.50;99.90;;;;;;5010719;28;20646;-38
2022/11/24 03:57:55;;;;;;;4.43;1.60;;;4.50;99.90;;;;;;5010398;28;20184;-39
2022/11/24 04:00:21;;;;;;;5.07;3.10;;;4.40;99.90;;;;;;4994300;28;20191;-39
2022/11/24 04:02:47;;;;;;;6.63;3.20;;;4.40;99.90;;;;;;4994134;28;20180;-39
2022/11/24 04:05:13;;;;;;;5.93;2.80;;;4.40;99.90;;;;;;4992213;28;20205;-39
2022/11/24 04:07:39;;;;;;;6.07;2.43;;;4.40;99.90;;;;;;5010249;28;20251;-39
2022/11/24 04:10:06;;;;;;;5.23;2.33;;;4.40;99.90;;;;;;4991910;28;20189;-38
2022/11/24 04:12:43;;;;;;;2.90;1.40;;;4.30;99.90;;;;;;5010095;28;20211;-42
2022/11/24 04:15:12;;;;;;;4.77;1.60;;;4.30;99.90;;;;;;4992864;28;20212;-39
2022/11/24 04:17:38;;;;;;;2.73;1.10;;;4.30;99.90;;;;;;5010135;28;20180;-39
2022/11/24 04:20:05;;;;;;;2.87;1.20;;;4.20;99.90;;;;;;5010063;28;20178;-39
2022/11/24 04:22:31;;;;;;;2.83;1.20;;;4.20;99.90;;;;;;5010378;28;20187;-38
2022/11/24 04:24:57;;;;;;;4.43;1.40;;;4.20;99.90;;;;;;5010123;28;20293;-38
2022/11/24 04:27:23;;;;;;;3.83;1.13;;;4.20;99.90;;;;;;5009915;28;20242;-41
2022/11/24 04:29:52;;;;;;;3.03;1.20;;;4.20;99.90;;;;;;5010103;28;20179;-39
2022/11/24 04:32:18;;;;;;;1.77;0.90;;;4.20;99.90;;;;;;5010223;28;20225;-37
2022/11/24 04:34:43;;;;;;;5.73;2.07;;;4.20;99.90;;;;;;5009689;28;20757;-38
2022/11/24 04:37:09;;;;;;;4.27;2.20;;;4.20;99.90;;;;;;5009515;28;20181;-39
2022/11/24 04:39:35;;;;;;;3.20;1.87;;;4.20;99.90;;;;;;4990457;28;20179;-38
2022/11/24 04:42:01;;;;;;;7.37;2.17;;;4.20;99.90;;;;;;4993247;28;20187;-40
2022/11/24 04:44:28;;;;;;;4.17;2.00;;;4.20;99.90;;;;;;5009369;28;20290;-39
2022/11/24 04:46:57;;;;;;;5.70;1.90;;;4.30;99.90;;;;;;5009470;28;20233;-38
2022/11/24 04:49:24;;;;;;;5.60;1.70;;;4.30;99.90;;;;;;5009399;28;20203;-38
2022/11/24 04:51:50;;;;;;;6.47;1.73;;;4.20;99.90;;;;;;5009262;28;20236;-38
2022/11/24 04:54:16;;;;;;;6.10;1.90;;;4.20;99.90;;;;;;5009463;28;20203;-39
2022/11/24 04:56:43;;;;;;;6.27;2.70;;;4.20;99.90;;;;;;5009366;28;20302;-38
2022/11/24 04:59:16;;;;;;;6.87;2.17;;;4.20;99.90;;;;;;5009018;28;20239;-40
2022/11/24 05:01:43;;;;;;;5.93;1.87;;;4.20;99.90;;;;;;4991700;28;20218;-38
2022/11/24 05:04:14;;;;;;;6.60;1.63;;;4.20;99.90;;;;;;5009387;28;20209;-37
2022/11/24 05:06:40;;;;;;;5.70;1.70;;;4.20;99.90;;;;;;5009119;28;20189;-38
2022/11/24 05:09:06;;;;;;;5.53;1.70;;;4.20;99.90;;;;;;5010866;28;20255;-41
2022/11/24 05:11:33;;;;;;;4.50;1.57;;;4.20;99.90;;;;;;5009419;28;20667;-38
2022/11/24 05:16:33;;;;;;;6.80;1.63;;;4.10;99.90;;;;;;4988353;28;20270;-32
2022/11/24 05:18:59;;;;;;;4.70;1.70;;;4.10;99.90;;;;;;4969248;28;20184;-30
2022/11/24 05:21:26;;;;;;;6.30;1.90;;;4.10;99.90;;;;;;4972897;28;20180;-29
2022/11/24 05:23:52;;;;;;;7.77;1.97;;;4.20;99.90;;;;;;4996721;28;20261;-30
2022/11/24 05:26:17;;;;;;;4.57;1.83;;;4.10;99.90;;;;;;5013319;28;20186;-30
2022/11/24 05:28:43;;;;;;;6.17;1.37;;;4.20;99.90;;;;;;4996823;28;20223;-29
2022/11/24 05:31:09;;;;;;;4.60;1.70;;;4.20;99.90;;;;;;4993788;28;20219;-30
2022/11/24 05:33:35;;;;;;;6.43;1.87;;;4.20;99.90;;;;;;4997394;28;20188;-30
2022/11/24 05:36:05;;;;;;;5.17;1.63;;;4.20;99.90;;;;;;5010345;28;20191;-31
2022/11/24 05:38:32;;;;;;;3.43;1.60;;;4.20;99.90;;;;;;5008327;28;20661;-31
2022/11/24 05:41:02;;;;;;;8.37;1.90;;;4.30;99.90;;;;;;5007620;28;20186;-30
2022/11/24 05:43:28;;;;;;;9.73;3.30;;;4.30;99.90;;;;;;4985271;28;20623;-30
2022/11/24 05:45:58;;;;;;;10.53;3.67;;;4.30;99.90;;;;;;4993347;28;20176;-29
2022/11/24 05:48:24;;;;;;;9.93;2.03;;;4.30;99.90;;;;;;4993594;28;20186;-29
2022/11/24 05:50:54;;;;;;;6.63;2.17;;;4.20;99.90;;;;;;4993833;28;20191;-30
2022/11/24 05:53:20;;;;;;;4.03;1.43;;;4.10;99.90;;;;;;4996706;28;20180;-31
2022/11/24 05:55:46;;;;;;;6.20;1.77;;;4.10;99.90;;;;;;5014260;28;20233;-30
2022/11/24 05:58:12;;;;;;;7.37;1.93;;;4.00;99.90;;;;;;4992092;28;20179;-30
2022/11/24 06:00:38;;;;;;;9.90;2.33;;;4.10;99.90;;;;;;4992573;28;20240;-30
2022/11/24 06:03:04;;;;;;;5.83;2.07;;;4.00;99.90;;;;;;4990544;28;20667;-29
2022/11/24 06:05:30;;;;;;;5.43;2.20;;;4.00;99.90;;;;;;5011609;28;20213;-30
2022/11/24 06:07:59;;;;;;;4.40;2.07;;;4.10;99.90;;;;;;4994397;28;20183;-29
2022/11/24 06:10:24;;;;;;;9.27;2.60;;;4.10;99.90;;;;;;4996252;28;20179;-29
2022/11/24 06:12:51;;;;;;;5.03;2.50;;;4.10;99.90;;;;;;5005099;28;20273;-29
2022/11/24 06:15:17;;;;;;;6.13;2.20;;;4.10;99.90;;;;;;4993995;28;20313;-29
2022/11/24 06:17:43;;;;;;;6.93;2.87;;;4.10;99.90;;;;;;4994989;28;20243;-29
2022/11/24 06:20:10;;;;;;;7.17;2.67;;;4.20;99.90;;;;;;4983709;28;20176;-30
2022/11/24 06:22:36;;;;;;;7.63;2.90;;;4.20;99.90;;;;;;4992987;28;20181;-29
2022/11/24 06:25:03;;;;;;;5.93;2.60;;;4.20;99.90;;;;;;4995610;28;20202;-29
2022/11/24 06:27:29;;;;;;;7.83;2.40;;;4.20;99.90;;;;;;5007856;28;20244;-29
2022/11/24 06:29:54;;;;;;;7.03;2.63;;;4.20;99.90;;;;;;4993367;28;20184;-29
2022/11/24 06:32:20;;;;;;;9.83;3.13;;;4.20;99.90;;;;;;4977922;28;20211;-29
2022/11/24 06:34:46;;;;;;;10.77;3.80;;;4.30;99.90;;;;;;4982929;28;20290;-30
2022/11/24 06:37:14;;;;;;;10.20;2.50;;;4.30;99.90;;;;;;5010551;28;20235;-29
2022/11/24 06:39:40;;;;;;;7.33;2.50;;;4.30;99.90;;;;;;4994279;28;20191;-30
2022/11/24 06:42:06;;;;;;;8.57;2.83;;;4.20;99.90;;;;;;4995928;28;20191;-30
2022/11/24 06:44:31;;;;;;;7.97;2.60;;;4.10;99.90;;;;;;4995096;28;20227;-31
2022/11/24 06:46:57;;;;;;;8.67;2.53;;;4.10;99.90;;;;;;4994548;28;20189;-30
2022/11/24 06:49:23;;;;;;;12.67;3.30;;;4.10;99.90;;;;;;5014357;28;20180;-30
2022/11/24 06:51:49;;;;;;;8.37;4.10;;;4.20;99.90;;;;;;4985658;28;20205;-31
2022/11/24 06:54:17;;;;;;;7.70;3.57;;;4.10;99.90;;;;;;4994659;28;20261;-31
2022/11/24 06:56:42;;;;;;;11.83;4.17;;;4.20;99.90;;;;;;5011247;28;20190;-30
2022/11/24 06:59:17;;;;;;;8.33;3.70;;;4.20;99.90;;;;;;5012598;28;20183;-30
2022/11/24 07:01:43;;;;;;;10.43;3.57;;;4.20;99.90;;;;;;4994670;28;20187;-30
2022/11/24 07:04:10;;;;;;;13.90;4.23;;;4.20;99.90;;;;;;4993639;28;20208;-29
2022/11/24 07:06:36;;;;;;;10.83;3.23;;;4.20;99.90;;;;;;5012769;28;20185;-29
2022/11/24 07:09:02;;;;;;;8.57;3.37;;;4.30;99.90;;;;;;4993232;28;20235;-30
2022/11/24 07:11:27;;;;;;;11.20;3.47;;;4.30;99.90;;;;;;4991727;28;20213;-29
2022/11/24 07:13:53;;;;;;;11.87;3.27;;;4.30;99.90;;;;;;4992831;28;20200;-30
2022/11/24 07:16:21;;;;;;;8.20;3.43;;;4.30;99.90;;;;;;4975902;28;20291;-29
2022/11/24 07:18:50;;;;;;;8.10;3.03;;;4.30;99.90;;;;;;4988279;28;20185;-29
2022/11/24 07:21:16;;;;;;;10.27;3.20;;;4.40;99.90;;;;;;4991914;28;20192;-30
2022/11/24 07:23:43;;;;;;;10.43;3.90;;;4.40;99.90;;;;;;4997101;28;20223;-30
2022/11/24 07:26:10;;;;;;;10.20;3.43;;;4.50;99.90;;;;;;4991687;28;20192;-31
2022/11/24 07:28:36;;;;;;;11.07;3.83;;;4.60;99.90;;;;;;4996977;28;20234;-30
2022/11/24 07:31:17;;;;;;;13.03;4.30;;;4.60;99.90;;;;;;5003348;28;20204;-31
2022/11/24 07:33:48;;;;;;;11.07;4.30;;;4.70;99.90;;;;;;4992765;28;20192;-29
2022/11/24 07:36:14;;;;;;;14.57;3.37;;;4.80;99.90;;;;;;4994900;28;20265;-29
2022/11/24 07:38:40;;;;;;;11.67;3.23;;;5.00;99.90;;;;;;4996798;28;20202;-29
2022/11/24 07:41:11;;;;;;;11.20;3.23;;;5.20;99.90;;;;;;4996912;28;20634;-29
2022/11/24 07:43:37;;;;;;;18.10;3.27;;;5.50;99.90;;;;;;5011487;28;20213;-29
2022/11/24 07:46:05;;;;;;;16.33;3.27;;;5.60;99.90;;;;;;4994568;28;20187;-29
2022/11/24 07:48:32;;;;;;;10.17;2.97;;;5.70;99.90;;;;;;5022089;23;20226;-86
2022/11/24 07:50:59;;;;;;;13.43;3.00;;;5.80;99.90;;;;;;5031988;28;20184;-86
2022/11/24 07:53:25;;;;;;;14.27;3.40;;;5.80;99.90;;;;;;5032254;28;20181;-86
2022/11/24 07:55:59;;;;;;;9.73;3.07;;;5.90;99.90;;;;;;5012561;28;20297;-86
2022/11/24 07:58:30;;;;;;;11.23;2.43;;;5.90;99.90;;;;;;5027992;28;20225;-87
2022/11/24 08:00:56;;;;;;;11.53;2.63;;;5.90;99.90;;;;;;5029514;28;20622;-87
2022/11/24 08:03:22;;;;;;;13.13;2.97;;;5.90;99.90;;;;;;5012603;28;20198;-87
2022/11/24 08:05:58;;;;;;;8.47;2.30;;;6.00;99.90;;;;;;5029118;28;20202;-86
2022/11/24 08:08:25;;;;;;;13.07;2.50;;;6.10;99.90;;;;;;5029101;28;20189;-86
2022/11/24 08:10:51;;;;;;;11.60;2.73;;;6.00;99.90;;;;;;5012914;28;20178;-86
2022/11/24 08:13:18;;;;;;;12.27;2.77;;;6.10;99.90;;;;;;5029116;28;20173;-86
2022/11/24 08:15:44;;;;;;;10.83;3.17;;;6.10;99.90;;;;;;5028993;28;20345;-87
2022/11/24 08:18:11;;;;;;;12.67;2.80;;;6.10;99.90;;;;;;4995914;28;20271;-86
2022/11/24 08:20:37;;;;;;;8.97;3.03;;;6.10;99.90;;;;;;5012966;28;20182;-86
2022/11/24 08:23:03;;;;;;;8.43;2.50;;;6.20;99.90;;;;;;5012626;28;20187;-86
2022/11/24 08:25:38;;;;;;;7.70;2.07;;;6.20;99.90;;;;;;5028931;28;20422;-86
2022/11/24 08:28:04;;;;;;;8.97;2.13;;;6.20;99.90;;;;;;5011697;28;20244;-86
2022/11/24 08:30:30;;;;;;;8.37;2.10;;;6.20;99.90;;;;;;5011950;28;20186;-86
2022/11/24 08:32:59;;;;;;;7.90;1.80;;;6.30;99.90;;;;;;5011983;28;20202;-86
2022/11/24 08:35:26;;;;;;;4.90;1.50;;;6.30;99.90;;;;;;5011993;28;20257;-86
2022/11/24 08:37:52;;;;;;;3.00;1.20;;;6.30;99.90;;;;;;4995464;28;20185;-86
2022/11/24 08:40:17;;;;;;;4.53;1.13;;;6.30;99.90;;;;;;4995683;28;20196;-86
2022/11/24 08:42:43;;;;;;;4.37;1.30;;;6.30;99.90;;;;;;4995886;28;20229;-86
2022/11/24 08:45:10;;;;;;;4.77;1.43;;;6.30;99.90;;;;;;4995354;28;20221;-86
2022/11/24 08:47:36;;;;;;;6.03;1.50;;;6.30;99.90;;;;;;4995358;28;20192;-86
2022/11/24 08:50:02;;;;;;;7.50;1.87;;;6.30;99.90;;;;;;4995378;28;20202;-86
2022/11/24 08:52:28;;;;;;;7.97;2.33;;;6.30;99.90;;;;;;5011955;28;20211;-86
2022/11/24 08:54:54;;;;;;;6.07;3.27;;;6.40;99.90;;;;;;5011650;28;20201;-86
2022/11/24 08:57:20;;;;;;;12.03;4.60;;;6.40;99.90;;;;;;4995184;28;20221;-86
2022/11/24 08:59:45;;;;;;;6.47;2.47;;;6.50;99.90;;;;;;4995411;28;20203;-86
2022/11/24 09:02:12;;;;;;;6.07;2.83;;;6.50;99.90;;;;;;4995552;28;20621;-86
2022/11/24 09:04:38;;;;;;;8.33;2.50;;;6.50;99.90;;;;;;5012034;28;20233;-86
2022/11/24 09:07:04;;;;;;;7.83;2.87;;;6.50;99.90;;;;;;4995267;28;20658;-86
2022/11/24 09:09:30;;;;;;;13.73;5.43;;;6.50;99.90;;;;;;5011795;28;20186;-86
2022/11/24 09:11:56;;;;;;;8.93;3.80;;;6.60;99.90;;;;;;4995261;28;20249;-87
2022/11/24 09:14:22;;;;;;;8.40;2.43;;;6.60;99.90;;;;;;4995707;28;20178;-87
2022/11/24 09:16:48;;;;;;;4.80;2.20;;;6.60;99.90;;;;;;4995192;28;20198;-87
2022/11/24 09:19:14;;;;;;;4.77;2.00;;;6.60;99.90;;;;;;4995554;28;20187;-87
2022/11/24 09:21:40;;;;;;;5.23;2.00;;;6.70;99.90;;;;;;4995162;28;20180;-87
2022/11/24 09:24:06;;;;;;;6.93;2.00;;;6.80;99.90;;;;;;4994658;28;20183;-87
2022/11/24 09:26:35;;;;;;;8.43;2.83;;;6.80;99.90;;;;;;4994603;28;20222;-87
2022/11/24 09:29:03;;;;;;;8.87;3.30;;;6.90;99.90;;;;;;4994262;28;20187;-86
2022/11/24 09:31:34;;;;;;;13.90;6.23;;;7.00;99.90;;;;;;4994952;28;20214;-86
2022/11/24 09:34:03;;;;;;;8.10;3.20;;;7.10;99.90;;;;;;4995289;28;20226;-86
2022/11/24 09:36:32;;;;;;;10.30;3.37;;;7.30;99.90;;;;;;5011345;28;20190;-87
2022/11/24 09:38:58;;;;;;;10.70;3.07;;;7.40;99.90;;;;;;5011357;28;20256;-86
2022/11/24 09:41:30;;;;;;;7.47;3.00;;;7.60;99.90;;;;;;5011299;28;20183;-87
2022/11/24 09:44:03;;;;;;;7.10;2.10;;;7.70;99.90;;;;;;4995361;28;20171;-87
2022/11/24 09:46:39;;;;;;;6.73;2.50;;;7.90;99.90;;;;;;4995114;28;20350;-87
2022/11/24 09:49:16;;;;;;;5.03;2.73;;;8.00;99.90;;;;;;4994838;28;20217;-87
2022/11/24 09:51:45;;;;;;;4.90;2.47;;;8.20;99.90;;;;;;4994940;28;20238;-87
2022/11/24 09:54:22;;;;;;;4.53;2.00;;;8.40;99.90;;;;;;4994882;28;20180;-87
2022/11/24 09:56:50;;;;;;;4.63;1.90;;;8.40;99.90;;;;;;4994450;28;20210;-87
2022/11/24 09:59:23;;;;;;;3.40;1.50;;;8.50;99.90;;;;;;4994345;28;20175;-87
2022/11/24 10:01:51;;;;;;;5.13;1.60;;;8.60;99.90;;;;;;5011299;28;20266;-87
2022/11/24 10:04:42;;;;;;;4.67;2.03;;;8.60;99.90;;;;;;4994886;28;20191;-87
2022/11/24 10:07:10;;;;;;;2.60;1.47;;;8.70;99.90;;;;;;4995998;28;20206;-87
2022/11/24 10:10:04;;;;;;;2.43;1.10;;;8.80;99.90;;;;;;4998516;28;20632;-87
2022/11/24 10:12:40;;;;;;;2.37;1.27;;;8.80;99.90;;;;;;4998448;28;20223;-87
2022/11/24 10:15:34;;;;;;;2.90;1.50;;;8.80;99.90;;;;;;4998250;28;20198;-87
2022/11/24 10:18:28;;;;;;;3.80;1.37;;;8.80;99.90;;;;;;4997997;28;20183;-87
2022/11/24 10:21:11;;;;;;;3.63;1.70;;;8.80;99.90;;;;;;4998242;28;20338;-87
2022/11/24 10:23:58;;;;;;;3.13;1.00;;;8.90;99.90;;;;;;4998083;28;20217;-87
2022/11/24 10:26:50;;;;;;;3.00;1.67;;;9.00;99.90;;;;;;4997805;28;20230;-87
2022/11/24 10:29:29;;;;;;;1.67;1.13;;;8.90;99.90;;;;;;4998299;28;20175;-87
2022/11/24 10:31:56;;;;;;;2.07;1.27;;;8.90;99.90;;;;;;5014409;28;20210;-87
2022/11/24 10:34:31;;;;;;;3.83;1.30;;;8.80;99.90;;;;;;4997983;28;20222;-87
2022/11/24 10:37:07;;;;;;;3.47;1.50;;;8.80;99.90;;;;;;4997893;28;20175;-87
2022/11/24 10:39:48;;;;;;;2.37;1.27;;;8.80;99.90;;;;;;5014430;28;20171;-87
2022/11/24 10:42:27;;;;;;;3.63;1.30;;;8.90;99.90;;;;;;4994607;28;20187;-87
2022/11/24 10:45:12;;;;;;;3.30;1.40;;;8.90;99.90;;;;;;4993998;28;20269;-87
2022/11/24 10:47:38;;;;;;;5.33;1.60;;;9.00;99.90;;;;;;4994327;28;20180;-87
2022/11/24 10:50:13;;;;;;;3.93;1.70;;;9.00;99.90;;;;;;4994303;28;20763;-87
2022/11/24 10:52:43;;;;;;;2.40;1.50;;;9.20;99.90;;;;;;4994475;28;20200;-87
2022/11/24 10:55:09;;;;;;;3.17;1.20;;;9.30;99.90;;;;;;5013290;28;20203;-87
2022/11/24 10:57:39;;;;;;;3.43;1.40;;;9.50;99.90;;;;;;5030106;28;20179;-87
2022/11/24 11:00:17;;;;;;;2.37;1.10;;;9.70;99.90;;;;;;5013561;28;20206;-87
2022/11/24 11:02:45;;;;;;;3.73;1.47;;;9.80;99.90;;;;;;5026814;28;20183;-87
2022/11/24 11:05:30;;;;;;;4.90;1.17;;;10.00;99.90;;;;;;5033341;28;20205;-87
2022/11/24 11:08:23;;;;;;;3.33;1.10;;;10.20;99.90;;;;;;5049303;28;20169;-87
2022/11/24 11:11:11;;;;;;;2.50;1.10;;;10.20;99.90;;;;;;5033309;28;20179;-87
2022/11/24 11:13:51;;;;;;;5.73;1.10;;;10.30;99.90;;;;;;5033256;28;20183;-87
2022/11/24 11:16:31;;;;;;;4.27;1.33;;;10.50;99.90;;;;;;5032907;28;20199;-86
2022/11/24 11:18:57;;;;;;;2.67;1.40;;;10.50;99.90;;;;;;5031968;28;20171;-86
2022/11/24 11:21:30;;;;;;;5.73;1.30;;;10.60;99.90;;;;;;5016259;28;20245;-86
2022/11/24 11:23:59;;;;;;;3.23;1.40;;;10.70;99.90;;;;;;5013110;28;20188;-86
2022/11/24 11:26:26;;;;;;;4.30;1.23;;;10.70;99.90;;;;;;5029757;28;20678;-86
2022/11/24 11:29:14;;;;;;;4.17;1.00;;;10.80;99.90;;;;;;5028873;28;20191;-86
2022/11/24 11:31:41;;;;;;;4.73;1.30;;;10.70;99.90;;;;;;5012439;28;20265;-85
2022/11/24 11:34:14;;;;;;;7.50;2.10;;;10.70;99.90;;;;;;5013093;28;20240;-86
2022/11/24 11:36:47;;;;;;;5.73;1.90;;;10.70;99.90;;;;;;5012824;28;20204;-86
2022/11/24 11:39:37;;;;;;;4.47;1.63;;;10.70;99.90;;;;;;4981162;28;20520;-86
2022/11/24 11:42:25;;;;;;;5.27;1.27;;;10.70;99.90;;;;;;4981652;28;20192;-86
2022/11/24 11:45:16;;;;;;;4.87;1.40;;;10.70;99.90;;;;;;4992680;28;20213;-86
2022/11/24 11:47:50;;;;;;;4.53;1.30;;;10.80;99.90;;;;;;4969169;28;20200;-85
2022/11/24 11:50:24;;;;;;;3.87;1.27;;;10.90;99.90;;;;;;5009042;28;20290;-86
2022/11/24 11:53:11;;;;;;;3.87;1.20;;;10.90;99.90;;;;;;4992904;28;20200;-86
2022/11/24 11:56:15;;;;;;;4.73;1.13;;;10.80;99.90;;;;;;5009310;28;20255;-86
2022/11/24 11:59:25;;;;;;;6.80;1.70;;;10.70;99.90;;;;;;4947081;28;20232;-85
2022/11/24 12:02:01;;;;;;;5.13;1.20;;;10.60;99.90;;;;;;4989130;28;20223;-86
2022/11/24 12:04:44;;;;;;;3.97;1.87;;;10.50;99.90;;;;;;5013069;28;20203;-86
2022/11/24 12:07:42;;;;;;;3.43;1.20;;;10.60;99.90;;;;;;4996418;28;20201;-86
2022/11/24 12:10:42;;;;;;;5.60;1.43;;;10.70;99.90;;;;;;4996259;28;20272;-85
2022/11/24 12:13:27;;;;;;;4.37;1.53;;;10.90;99.90;;;;;;5012618;28;20203;-86
2022/11/24 12:16:05;;;;;;;3.70;1.30;;;10.80;99.90;;;;;;4995920;28;20204;-86
2022/11/24 12:18:48;;;;;;;4.37;1.10;;;10.80;99.90;;;;;;5012534;28;20171;-86
2022/11/24 12:21:51;;;;;;;4.97;1.33;;;10.90;99.90;;;;;;4996053;28;20174;-87
2022/11/24 12:24:33;;;;;;;4.03;1.33;;;11.00;99.90;;;;;;5001662;28;20195;-86
2022/11/24 12:27:37;;;;;;;5.63;1.50;;;11.00;99.90;;;;;;4995800;28;20181;-85
2022/11/24 12:30:16;;;;;;;3.87;1.50;;;11.00;99.90;;;;;;4995550;28;20227;-86
2022/11/24 12:33:22;;;;;;;5.00;1.43;;;11.00;99.90;;;;;;4995668;28;20205;-86
2022/11/24 12:36:02;;;;;;;6.20;1.70;;;11.00;99.90;;;;;;5028585;28;20209;-86
2022/11/24 12:38:57;;;;;;;5.67;1.40;;;11.20;99.90;;;;;;4996025;28;20261;-86
2022/11/24 12:41:54;;;;;;;4.80;1.20;;;11.30;99.90;;;;;;4992815;28;20228;-86
2022/11/24 12:44:55;;;;;;;4.20;1.27;;;11.50;99.90;;;;;;5011956;28;20196;-84
2022/11/24 12:47:32;;;;;;;7.87;1.90;;;11.60;99.90;;;;;;5028097;28;20613;-86
2022/11/24 12:50:18;;;;;;;3.87;1.37;;;11.60;99.90;;;;;;5011541;28;20208;-86
2022/11/24 12:53:02;;;;;;;3.57;1.33;;;11.60;99.90;;;;;;4978745;28;20681;-86
2022/11/24 12:55:31;;;;;;;4.40;1.40;;;11.60;99.90;;;;;;5028048;28;20200;-86
2022/11/24 12:58:15;;;;;;;5.50;1.20;;;11.60;99.90;;;;;;5012104;28;20181;-86
2022/11/24 13:00:44;;;;;;;3.67;1.10;;;11.60;99.90;;;;;;5011971;28;20181;-86
2022/11/24 13:03:39;;;;;;;5.83;1.43;;;11.70;99.90;;;;;;5012049;28;20280;-86
2022/11/24 13:06:11;;;;;;;5.53;1.70;;;11.70;99.90;;;;;;5011832;28;20195;-86
2022/11/24 13:08:37;;;;;;;3.63;1.23;;;11.60;99.90;;;;;;5012701;28;20189;-86
2022/11/24 13:11:22;;;;;;;5.10;1.47;;;11.50;99.90;;;;;;5011368;28;20281;-86
2022/11/24 13:14:12;;;;;;;4.83;1.23;;;11.60;99.90;;;;;;5011240;28;20189;-86